Time;durP1;ratioP1;P1;durP2;ratioP2;P2;SDS_P1;SDS_P2;PMS_P1;PMS_P2;Temp;Humidity;BMP_temperature;BMP_pressure;BME280_temperature;BME280_humidity;BME280_pressure;Samples;Min_cycle;Max_cycle;Signal;HPM_P1;HPM_P2
2021/04/12 00:00:36;;;;;;;5.72;1.10;;;2.90;99.90;;;;;;12356980;28;20046;-42
2021/04/12 00:06:45;;;;;;;5.38;1.38;;;2.80;99.90;;;;;;12359880;28;20104;-42
2021/04/12 00:12:59;;;;;;;2.40;1.15;;;2.70;99.90;;;;;;12363707;28;20042;-42
2021/04/12 00:19:14;;;;;;;3.70;1.13;;;2.70;99.90;;;;;;12360786;28;20050;-43
2021/04/12 00:25:44;;;;;;;5.25;1.33;;;2.70;99.90;;;;;;12360065;28;20057;-42
2021/04/12 00:31:58;;;;;;;2.97;1.30;;;2.60;99.90;;;;;;12371033;28;20049;-42
2021/04/12 00:38:09;;;;;;;4.70;1.50;;;2.50;99.90;;;;;;12372517;28;20487;-42
2021/04/12 00:44:17;;;;;;;10.23;1.30;;;2.40;99.90;;;;;;12365831;28;20527;-42
2021/04/12 00:50:37;;;;;;;6.57;2.05;;;2.50;99.90;;;;;;12370724;28;20072;-42
2021/04/12 00:57:00;;;;;;;7.45;1.60;;;2.40;99.90;;;;;;12363811;28;20129;-42
2021/04/12 01:03:08;;;;;;;7.20;2.13;;;2.30;99.90;;;;;;12372755;28;20046;-42
2021/04/12 01:09:44;;;;;;;2.92;1.60;;;2.00;99.90;;;;;;12362325;28;20042;-43
2021/04/12 01:16:07;;;;;;;4.22;1.35;;;1.80;99.90;;;;;;12369343;28;20046;-43
2021/04/12 01:22:59;;;;;;;6.38;1.65;;;1.90;99.90;;;;;;12372815;28;20053;-42
2021/04/12 01:29:38;;;;;;;5.93;1.90;;;2.10;99.90;;;;;;12371872;28;20065;-42
2021/04/12 01:36:33;;;;;;;4.65;1.45;;;2.10;99.90;;;;;;12362636;28;20547;-43
2021/04/12 01:43:01;;;;;;;5.73;1.80;;;2.20;99.90;;;;;;12360353;28;21064;-42
2021/04/12 01:49:35;;;;;;;6.18;1.70;;;2.10;99.90;;;;;;12371437;28;20058;-42
2021/04/12 01:56:02;;;;;;;5.75;1.60;;;2.10;99.90;;;;;;12368990;28;20049;-42
2021/04/12 02:02:07;;;;;;;5.28;1.60;;;2.10;99.90;;;;;;12363828;28;20058;-42
2021/04/12 02:08:15;;;;;;;5.57;1.98;;;2.00;99.90;;;;;;12362306;28;20492;-41
2021/04/12 02:14:42;;;;;;;6.18;1.90;;;1.90;99.90;;;;;;12347793;28;20054;-42
2021/04/12 02:21:00;;;;;;;8.98;2.20;;;1.70;99.90;;;;;;12368951;28;20389;-42
2021/04/12 02:27:21;;;;;;;8.55;3.10;;;1.60;99.90;;;;;;12369180;28;20050;-42
2021/04/12 02:33:42;;;;;;;5.68;2.47;;;1.50;99.90;;;;;;12360608;28;20793;-42
2021/04/12 02:40:21;;;;;;;5.90;2.50;;;1.40;99.90;;;;;;12365027;28;20050;-42
2021/04/12 02:47:10;;;;;;;7.07;3.15;;;1.50;99.90;;;;;;12370261;28;20130;-43
2021/04/12 02:53:33;;;;;;;7.38;2.83;;;1.50;99.90;;;;;;12359985;28;20050;-42
2021/04/12 02:59:47;;;;;;;7.38;2.95;;;1.60;99.90;;;;;;12365514;28;20133;-42
2021/04/12 03:06:12;;;;;;;8.45;3.15;;;1.50;99.90;;;;;;12353885;28;20546;-42
2021/04/12 03:12:51;;;;;;;7.28;3.33;;;1.70;99.90;;;;;;12363198;28;20132;-42
2021/04/12 03:19:09;;;;;;;8.90;3.70;;;1.80;99.90;;;;;;12355384;28;20131;-42
2021/04/12 03:25:33;;;;;;;6.53;3.30;;;1.80;99.90;;;;;;12361616;28;20062;-43
2021/04/12 03:31:45;;;;;;;7.28;3.58;;;1.90;99.90;;;;;;12343606;28;20050;-42
2021/04/12 03:38:19;;;;;;;5.18;2.95;;;1.80;99.90;;;;;;12363280;28;20136;-42
2021/04/12 03:44:51;;;;;;;7.90;3.45;;;1.70;99.90;;;;;;12342387;28;20439;-42
2021/04/12 03:51:28;;;;;;;7.55;3.47;;;1.60;99.90;;;;;;12359950;28;20060;-42
2021/04/12 03:58:06;;;;;;;6.13;3.03;;;1.30;99.90;;;;;;12349911;28;20132;-42
2021/04/12 04:04:23;;;;;;;8.02;3.53;;;1.20;99.90;;;;;;12357974;28;20076;-42
2021/04/12 04:10:55;;;;;;;12.55;4.85;;;1.10;99.90;;;;;;12361656;28;20046;-42
2021/04/12 04:17:26;;;;;;;9.45;3.80;;;1.10;99.90;;;;;;12365317;28;20276;-42
2021/04/12 04:23:42;;;;;;;8.20;3.88;;;1.10;99.90;;;;;;12357829;28;20046;-42
2021/04/12 04:30:00;;;;;;;11.10;4.07;;;1.10;99.90;;;;;;12345393;28;20103;-43
2021/04/12 04:36:23;;;;;;;9.88;3.95;;;1.10;99.90;;;;;;12353072;28;20058;-42
2021/04/12 04:42:46;;;;;;;9.45;4.40;;;1.20;99.90;;;;;;12342027;28;20054;-43
2021/04/12 04:49:31;;;;;;;8.20;4.22;;;1.10;99.90;;;;;;12340940;28;20155;-42
2021/04/12 04:56:01;;;;;;;7.88;4.05;;;1.10;99.90;;;;;;12344636;28;20061;-42
2021/04/12 05:02:22;;;;;;;8.57;4.22;;;1.20;99.90;;;;;;12360095;28;20471;-42
2021/04/12 05:09:01;;;;;;;13.38;5.10;;;1.20;99.90;;;;;;12359240;28;20102;-42
2021/04/12 05:15:24;;;;;;;7.88;4.20;;;1.20;99.90;;;;;;12362991;28;20053;-43
2021/04/12 05:21:34;;;;;;;10.68;4.75;;;1.40;99.90;;;;;;12365946;28;20120;-43
2021/04/12 05:27:57;;;;;;;9.02;4.50;;;1.70;99.90;;;;;;12356100;28;20511;-42
2021/04/12 05:34:32;;;;;;;10.73;4.22;;;1.70;99.90;;;;;;12362612;28;20691;-42
2021/04/12 05:40:54;;;;;;;7.90;3.85;;;1.80;99.90;;;;;;12366961;28;20160;-42
2021/04/12 05:47:49;;;;;;;9.88;3.65;;;2.10;99.90;;;;;;12362132;28;20050;-42
2021/04/12 05:54:05;;;;;;;7.65;3.45;;;2.40;99.90;;;;;;12360400;28;20303;-43
2021/04/12 06:00:31;;;;;;;6.45;3.35;;;2.50;99.90;;;;;;12357639;28;20108;-44
2021/04/12 06:06:58;;;;;;;8.70;3.00;;;2.60;99.90;;;;;;12353239;28;20050;-42
2021/04/12 06:13:27;;;;;;;8.43;3.38;;;2.70;99.90;;;;;;12358123;28;20490;-42
2021/04/12 06:19:40;;;;;;;7.22;3.08;;;2.90;99.90;;;;;;12363711;28;20050;-43
2021/04/12 06:26:23;;;;;;;12.00;2.72;;;3.10;99.90;;;;;;12352719;28;20085;-42
2021/04/12 06:32:44;;;;;;;5.10;2.70;;;3.70;99.90;;;;;;12350357;28;20096;-42
2021/04/12 06:39:04;;;;;;;9.18;2.63;;;3.70;99.90;;;;;;12361240;28;20089;-42
2021/04/12 06:45:24;;;;;;;5.00;2.22;;;4.10;99.90;;;;;;12363125;28;20124;-43
2021/04/12 06:51:43;;;;;;;9.68;2.45;;;4.10;99.90;;;;;;12368136;28;20072;-43
2021/04/12 06:58:14;;;;;;;7.75;2.42;;;4.20;99.90;;;;;;12368775;28;20058;-42
2021/04/12 07:04:34;;;;;;;8.60;2.42;;;4.30;99.90;;;;;;12358324;28;20050;-42
2021/04/12 07:11:17;;;;;;;5.75;2.20;;;4.40;99.90;;;;;;12362318;28;20054;-43
2021/04/12 07:17:30;;;;;;;11.93;2.33;;;4.40;99.90;;;;;;12364354;28;20836;-42
2021/04/12 07:23:40;;;;;;;6.88;2.33;;;4.40;99.90;;;;;;12363253;28;20606;-43
2021/04/12 07:29:57;;;;;;;7.07;1.92;;;4.60;99.90;;;;;;12351225;28;20042;-42
2021/04/12 07:36:23;;;;;;;6.50;2.17;;;4.60;99.90;;;;;;12352914;28;20375;-42
2021/04/12 07:42:58;;;;;;;10.73;1.88;;;4.90;99.90;;;;;;12349550;28;20495;-42
2021/04/12 07:49:15;;;;;;;6.10;1.95;;;5.10;99.90;;;;;;12361584;28;20042;-42
2021/04/12 07:55:25;;;;;;;8.93;2.10;;;5.10;99.90;;;;;;12353277;28;20054;-42
2021/04/12 08:02:23;;;;;;;10.38;2.38;;;5.30;99.90;;;;;;12354104;28;20108;-42
2021/04/12 08:08:43;;;;;;;5.53;1.77;;;4.90;99.90;;;;;;12344527;28;20121;-42
2021/04/12 08:15:24;;;;;;;6.07;1.85;;;5.10;99.90;;;;;;12353744;28;20129;-43
2021/04/12 08:22:13;;;;;;;5.25;1.48;;;5.60;99.90;;;;;;12351009;28;20050;-44
2021/04/12 08:28:52;;;;;;;5.40;1.42;;;5.50;99.90;;;;;;12340539;28;20563;-42
2021/04/12 08:35:08;;;;;;;9.32;2.65;;;5.70;99.90;;;;;;12350182;28;20486;-42
2021/04/12 08:41:37;;;;;;;8.65;1.80;;;5.80;99.90;;;;;;12353562;28;20111;-43
2021/04/12 08:48:30;;;;;;;5.25;1.58;;;5.70;99.90;;;;;;12345801;28;20054;-42
2021/04/12 08:55:07;;;;;;;7.05;1.20;;;5.60;99.90;;;;;;12348779;28;20510;-42
2021/04/12 09:01:22;;;;;;;6.03;1.42;;;5.90;99.90;;;;;;12356045;28;20038;-42
2021/04/12 09:07:23;;;;;;;;;;;5.90;99.90;;;;;;12361208;28;20498;-42
2021/04/12 09:14:00;;;;;;;4.47;1.27;;;6.00;99.90;;;;;;12356633;28;20020;-42
2021/04/12 09:20:08;;;;;;;6.40;1.13;;;6.40;99.90;;;;;;12366536;28;20051;-42
2021/04/12 09:26:41;;;;;;;5.05;0.98;;;6.70;99.90;;;;;;12366076;28;20091;-43
2021/04/12 09:32:54;;;;;;;5.60;1.05;;;6.90;99.90;;;;;;12370220;28;20136;-42
2021/04/12 09:39:45;;;;;;;6.78;1.13;;;6.60;99.90;;;;;;12359719;28;20042;-42
2021/04/12 09:46:04;;;;;;;6.68;1.10;;;6.20;99.90;;;;;;12360628;28;20038;-43
2021/04/12 09:52:37;;;;;;;4.88;1.80;;;6.10;99.90;;;;;;12372677;28;20061;-42
2021/04/12 09:58:57;;;;;;;4.85;1.10;;;6.20;99.90;;;;;;12361736;28;20046;-43
2021/04/12 10:05:13;;;;;;;2.97;0.85;;;6.50;99.90;;;;;;12359739;28;20050;-44
2021/04/12 10:11:20;;;;;;;3.47;1.20;;;6.70;99.90;;;;;;12356494;28;20137;-42
2021/04/12 10:17:37;;;;;;;6.28;1.52;;;6.60;99.90;;;;;;12359085;28;20479;-42
2021/04/12 10:23:41;;;;;;;2.03;0.80;;;7.20;99.90;;;;;;12354823;28;20061;-42
2021/04/12 10:30:04;;;;;;;3.90;1.08;;;7.70;99.90;;;;;;12353846;28;20046;-43
2021/04/12 10:36:10;;;;;;;4.20;0.90;;;7.90;99.90;;;;;;12357496;28;20138;-44
2021/04/12 10:42:25;;;;;;;2.47;0.50;;;6.30;99.90;;;;;;12352609;28;20116;-42
2021/04/12 10:48:39;;;;;;;3.87;0.73;;;5.40;99.90;;;;;;12354825;28;20097;-42
2021/04/12 10:54:48;;;;;;;2.10;0.70;;;5.40;99.90;;;;;;12352788;28;20038;-43
2021/04/12 11:00:54;;;;;;;3.85;1.60;;;6.20;99.90;;;;;;12344379;28;20064;-45
2021/04/12 11:07:00;;;;;;;3.08;1.10;;;7.40;99.90;;;;;;12359465;28;20674;-43
2021/04/12 11:13:22;;;;;;;2.85;0.75;;;8.20;99.90;;;;;;12358426;28;20082;-44
2021/04/12 11:19:50;;;;;;;4.03;0.70;;;8.00;99.90;;;;;;12351172;28;20062;-42
2021/04/12 11:26:02;;;;;;;2.30;0.82;;;7.00;99.90;;;;;;12339820;28;20710;-43
2021/04/12 11:32:29;;;;;;;3.10;0.85;;;6.40;99.90;;;;;;12352838;28;20061;-43
2021/04/12 11:38:34;;;;;;;2.92;0.98;;;6.30;99.90;;;;;;12335187;28;20708;-43
2021/04/12 11:44:44;;;;;;;;;;;6.80;99.90;;;;;;12335402;28;20550;-43
2021/04/12 11:50:56;;;;;;;3.03;0.90;;;6.70;99.90;;;;;;12349902;28;19922;-42
2021/04/12 11:57:07;;;;;;;2.75;1.10;;;6.70;99.90;;;;;;12359564;28;20348;-42
2021/04/12 12:03:19;;;;;;;4.05;1.08;;;6.80;99.90;;;;;;12356143;28;20731;-43
2021/04/12 12:09:44;;;;;;;4.40;1.10;;;7.50;99.90;;;;;;12361384;28;20046;-43
2021/04/12 12:16:02;;;;;;;2.53;1.15;;;8.30;99.90;;;;;;12351549;28;20081;-43
2021/04/12 12:22:40;;;;;;;6.07;1.77;;;8.50;99.90;;;;;;12349389;28;21116;-43
2021/04/12 12:28:58;;;;;;;3.13;0.90;;;8.10;99.90;;;;;;12363377;28;20390;-44
2021/04/12 12:35:06;;;;;;;3.88;1.20;;;7.70;99.90;;;;;;12356991;28;20076;-46
2021/04/12 12:41:24;;;;;;;2.53;1.00;;;8.30;99.90;;;;;;12364153;28;20050;-43
2021/04/12 12:47:26;;;;;;;2.67;1.00;;;7.90;99.90;;;;;;12363441;28;20670;-43
2021/04/12 12:53:34;;;;;;;3.38;0.93;;;7.80;99.90;;;;;;12374141;28;20055;-43
2021/04/12 12:59:39;;;;;;;1.75;0.73;;;7.70;99.90;;;;;;12376483;28;20057;-44
2021/04/12 13:05:42;;;;;;;3.40;1.20;;;6.70;99.90;;;;;;12371622;28;20080;-44
2021/04/12 13:11:47;;;;;;;2.22;1.10;;;5.80;99.90;;;;;;12368136;28;20103;-43
2021/04/12 13:17:49;;;;;;;;;;;5.20;99.90;;;;;;12365926;28;20043;-44
2021/04/12 13:23:55;;;;;;;3.33;1.20;;;4.70;99.90;;;;;;12359029;28;19972;-44
2021/04/12 13:30:22;;;;;;;2.15;0.93;;;4.90;99.90;;;;;;12376000;28;20097;-43
2021/04/12 13:36:37;;;;;;;4.05;0.90;;;5.50;99.90;;;;;;12364672;28;20050;-44
2021/04/12 13:42:51;;;;;;;3.95;1.10;;;5.90;99.90;;;;;;12363142;28;20053;-44
2021/04/12 13:49:06;;;;;;;4.65;1.30;;;6.20;99.90;;;;;;12360991;28;20316;-43
2021/04/12 13:55:14;;;;;;;3.13;0.95;;;6.70;99.90;;;;;;12362598;28;20050;-42
2021/04/12 14:01:21;;;;;;;5.30;1.17;;;7.40;99.90;;;;;;12371607;28;20388;-44
2021/04/12 14:07:44;;;;;;;2.90;1.13;;;6.90;99.90;;;;;;12360661;28;20078;-42
2021/04/12 14:13:51;;;;;;;3.17;1.30;;;6.60;99.90;;;;;;12364857;28;20538;-42
2021/04/12 14:20:01;;;;;;;2.65;1.05;;;6.20;99.90;;;;;;12362084;28;20185;-42
2021/04/12 14:26:14;;;;;;;5.72;1.30;;;5.90;99.90;;;;;;12370484;28;20487;-43
2021/04/12 14:32:20;;;;;;;3.13;1.10;;;5.70;99.90;;;;;;12366231;28;20053;-43
2021/04/12 14:38:23;;;;;;;5.05;1.40;;;5.70;99.90;;;;;;12362038;28;20156;-43
2021/04/12 14:44:37;;;;;;;3.10;1.27;;;6.90;99.90;;;;;;12377439;28;20050;-43
2021/04/12 14:50:53;;;;;;;1.60;0.80;;;7.20;99.90;;;;;;12361065;28;22027;-43
2021/04/12 14:57:10;;;;;;;1.75;0.95;;;8.00;99.90;;;;;;12361688;28;20093;-45
2021/04/12 15:03:18;;;;;;;1.83;0.93;;;8.60;99.90;;;;;;12336701;28;20050;-42
2021/04/12 15:09:39;;;;;;;3.30;1.40;;;8.70;99.90;;;;;;12334042;28;20068;-44
2021/04/12 15:15:44;;;;;;;2.80;1.13;;;8.70;99.90;;;;;;12359542;28;20050;-44
2021/04/12 15:21:50;;;;;;;2.78;1.20;;;8.70;99.90;;;;;;12365940;28;20399;-42
2021/04/12 15:27:59;;;;;;;2.38;1.20;;;8.30;99.90;;;;;;12354454;28;20046;-43
2021/04/12 15:34:06;;;;;;;2.33;1.10;;;8.70;99.90;;;;;;12352333;28;20058;-42
2021/04/12 15:40:23;;;;;;;3.00;1.20;;;8.10;99.90;;;;;;12349766;28;20062;-43
2021/04/12 15:46:31;;;;;;;3.13;1.38;;;8.30;99.90;;;;;;12353782;28;20046;-43
2021/04/12 15:52:41;;;;;;;3.38;1.73;;;8.30;99.90;;;;;;12359314;28;20221;-43
2021/04/12 15:59:22;;;;;;;3.63;1.45;;;7.50;99.90;;;;;;12356471;28;20062;-42
2021/04/12 16:05:33;;;;;;;5.15;1.40;;;7.10;99.90;;;;;;12344633;28;20046;-42
2021/04/12 16:11:54;;;;;;;2.60;1.40;;;6.50;99.90;;;;;;12354083;28;20137;-42
2021/04/12 16:18:07;;;;;;;3.50;1.30;;;6.00;99.90;;;;;;12359511;28;20133;-42
2021/04/12 16:24:23;;;;;;;2.45;1.10;;;5.40;99.90;;;;;;12353071;28;20550;-42
2021/04/12 16:30:30;;;;;;;1.95;1.00;;;5.00;99.90;;;;;;12350565;28;20788;-42
2021/04/12 16:36:43;;;;;;;4.35;1.33;;;4.80;99.90;;;;;;12353211;28;20058;-42
2021/04/12 16:43:02;;;;;;;2.08;1.08;;;4.70;99.90;;;;;;12346962;28;20411;-43
2021/04/12 16:49:09;;;;;;;2.00;1.07;;;5.40;99.90;;;;;;12353771;28;20137;-42
2021/04/12 16:55:26;;;;;;;2.53;0.80;;;7.30;99.90;;;;;;12351333;28;20042;-43
2021/04/12 17:01:47;;;;;;;2.90;0.70;;;8.70;99.90;;;;;;12349322;28;20050;-43
2021/04/12 17:07:56;;;;;;;2.08;1.00;;;8.90;99.90;;;;;;12333410;28;20145;-43
2021/04/12 17:14:14;;;;;;;1.52;0.90;;;8.40;99.90;;;;;;12347993;28;20493;-43
2021/04/12 17:20:35;;;;;;;2.63;1.42;;;8.50;99.90;;;;;;12357707;28;20447;-43
2021/04/12 17:26:49;;;;;;;4.20;1.30;;;7.90;99.90;;;;;;12361473;28;20084;-42
2021/04/12 17:32:56;;;;;;;3.58;1.50;;;7.60;99.90;;;;;;12359702;28;20581;-43
2021/04/12 17:39:06;;;;;;;3.75;1.52;;;7.30;99.90;;;;;;12350093;28;20063;-42
2021/04/12 17:45:13;;;;;;;5.72;1.65;;;6.90;99.90;;;;;;12356788;28;20135;-42
2021/04/12 17:51:20;;;;;;;2.38;1.40;;;6.30;99.90;;;;;;12354965;28;20046;-43
2021/04/12 17:57:33;;;;;;;9.95;2.00;;;6.00;99.90;;;;;;12342466;28;20054;-44
2021/04/12 18:03:55;;;;;;;5.53;1.65;;;5.50;99.90;;;;;;12348370;28;20042;-43
2021/04/12 18:10:03;;;;;;;7.32;1.83;;;4.90;99.90;;;;;;12347060;28;20503;-42
2021/04/12 18:16:26;;;;;;;5.50;2.00;;;4.30;99.90;;;;;;12349840;28;20070;-43
2021/04/12 18:22:29;;;;;;;3.80;2.10;;;3.90;99.90;;;;;;12358358;28;20046;-44
2021/04/12 18:28:37;;;;;;;3.90;2.08;;;3.70;99.90;;;;;;12361098;28;20097;-42
2021/04/12 18:35:07;;;;;;;5.50;2.20;;;3.60;99.90;;;;;;12358860;28;20133;-42
2021/04/12 18:41:22;;;;;;;5.53;2.28;;;3.50;99.90;;;;;;12350171;28;20107;-41
2021/04/12 18:47:30;;;;;;;5.22;2.00;;;3.40;99.90;;;;;;12358503;28;20060;-41
2021/04/12 18:53:35;;;;;;;8.38;2.22;;;3.50;99.90;;;;;;12346357;28;20099;-41
2021/04/12 19:00:02;;;;;;;3.78;1.92;;;3.20;99.90;;;;;;12353759;28;20491;-41
2021/04/12 19:06:48;;;;;;;3.42;2.15;;;3.00;99.90;;;;;;12347974;28;20054;-41
2021/04/12 19:13:21;;;;;;;3.80;2.40;;;2.80;99.90;;;;;;12353093;28;20053;-42
2021/04/12 19:19:45;;;;;;;4.78;2.40;;;2.70;99.90;;;;;;12358099;28;20050;-41
2021/04/12 19:25:52;;;;;;;5.38;2.55;;;2.70;99.90;;;;;;12356395;28;20054;-43
2021/04/12 19:32:20;;;;;;;6.28;2.90;;;2.70;99.90;;;;;;12370706;28;20077;-41
2021/04/12 19:38:48;;;;;;;4.25;2.80;;;2.70;99.90;;;;;;12358910;28;20384;-42
2021/04/12 19:44:58;;;;;;;4.55;2.80;;;2.80;99.90;;;;;;12358789;28;20046;-41
2021/04/12 19:51:05;;;;;;;5.38;2.83;;;2.80;99.90;;;;;;12361278;28;20445;-41
2021/04/12 19:57:19;;;;;;;5.18;2.80;;;2.80;99.90;;;;;;12366267;28;20056;-42
2021/04/12 20:03:39;;;;;;;4.57;2.93;;;2.80;99.90;;;;;;12359508;28;20767;-42
2021/04/12 20:09:55;;;;;;;4.78;2.45;;;2.70;99.90;;;;;;12361840;28;20123;-43
2021/04/12 20:16:08;;;;;;;6.80;3.28;;;2.70;99.90;;;;;;12361712;28;20141;-41
2021/04/12 20:22:24;;;;;;;5.65;3.00;;;2.50;99.90;;;;;;12354426;28;20133;-43
2021/04/12 20:28:43;;;;;;;6.82;3.15;;;2.50;99.90;;;;;;12363650;28;20050;-41
2021/04/12 20:35:04;;;;;;;5.50;2.33;;;2.40;99.90;;;;;;12364076;28;20084;-41
2021/04/12 20:41:27;;;;;;;3.97;2.25;;;2.40;99.90;;;;;;12363246;28;20046;-42
2021/04/12 20:47:49;;;;;;;3.92;2.17;;;2.30;99.90;;;;;;12365199;28;20380;-42
2021/04/12 20:54:03;;;;;;;3.88;2.50;;;2.20;99.90;;;;;;12369251;28;20062;-42
2021/04/12 21:00:08;;;;;;;3.42;2.10;;;2.00;99.90;;;;;;12371427;28;20096;-43
2021/04/12 21:06:17;;;;;;;5.72;2.33;;;2.20;99.90;;;;;;12365641;28;20100;-41
2021/04/12 21:12:29;;;;;;;5.68;1.90;;;2.20;99.90;;;;;;12366306;28;20111;-41
2021/04/12 21:18:35;;;;;;;5.75;2.10;;;2.20;99.90;;;;;;12366578;28;20100;-41
2021/04/12 21:24:38;;;;;;;7.45;2.15;;;2.20;99.90;;;;;;12367020;28;20578;-41
2021/04/12 21:30:57;;;;;;;5.22;2.50;;;2.10;99.90;;;;;;12362863;28;20049;-41
2021/04/12 21:37:32;;;;;;;3.22;2.15;;;2.10;99.90;;;;;;12368944;28;20112;-41
2021/04/12 21:43:38;;;;;;;5.25;2.45;;;2.00;99.90;;;;;;12355275;28;20046;-42
2021/04/12 21:49:48;;;;;;;4.72;2.90;;;2.00;99.90;;;;;;12360056;28;20046;-41
2021/04/12 21:56:15;;;;;;;7.25;3.00;;;1.90;99.90;;;;;;12359448;28;20049;-41
2021/04/12 22:02:22;;;;;;;7.35;3.70;;;1.90;99.90;;;;;;12362781;28;20137;-41
2021/04/12 22:08:42;;;;;;;5.55;3.85;;;1.80;99.90;;;;;;12361883;28;20050;-43
2021/04/12 22:15:02;;;;;;;6.65;4.38;;;1.80;99.90;;;;;;12361903;28;20104;-41
2021/04/12 22:21:12;;;;;;;7.50;4.13;;;1.80;99.90;;;;;;12358053;28;20050;-41
2021/04/12 22:27:24;;;;;;;8.27;4.03;;;1.90;99.90;;;;;;12357747;28;20500;-41
2021/04/12 22:33:54;;;;;;;8.38;4.00;;;1.90;99.90;;;;;;12357847;28;21769;-42
2021/04/12 22:40:15;;;;;;;7.35;4.07;;;1.90;99.90;;;;;;12356246;28;20054;-41
2021/04/12 22:46:17;;;;;;;9.88;4.18;;;1.90;99.90;;;;;;12358207;28;21046;-42
2021/04/12 22:52:31;;;;;;;9.20;4.45;;;1.80;99.90;;;;;;12361941;28;20103;-41
2021/04/12 22:59:04;;;;;;;7.53;3.75;;;1.70;99.90;;;;;;12372527;28;20510;-41
2021/04/12 23:05:18;;;;;;;6.63;3.40;;;1.70;99.90;;;;;;12359321;28;20464;-41
2021/04/12 23:11:25;;;;;;;8.02;3.60;;;1.80;99.90;;;;;;12355954;28;20054;-41
2021/04/12 23:17:29;;;;;;;7.88;3.78;;;1.80;99.90;;;;;;12359827;28;20105;-41
2021/04/12 23:23:34;;;;;;;7.63;3.80;;;1.80;99.90;;;;;;12356898;28;20139;-41
2021/04/12 23:29:41;;;;;;;7.60;3.88;;;1.90;99.90;;;;;;12343888;28;20061;-41
2021/04/12 23:35:42;;;;;;;12.27;4.60;;;1.90;99.90;;;;;;12360780;28;20050;-41
2021/04/12 23:41:44;;;;;;;7.30;4.45;;;1.90;99.90;;;;;;12350454;28;20390;-42
2021/04/12 23:48:05;;;;;;;7.68;4.75;;;1.90;99.90;;;;;;12352470;28;20529;-41
2021/04/12 23:54:06;;;;;;;8.55;5.07;;;1.80;99.90;;;;;;12348015;28;20399;-42
